Cape Magnolia — 3FGP2 — position and weather

sailwx.info

Track history (hours):
 
Tides and Currents Weather Stations Pressure Air Temp Water Temp Dewpoint Dewpoint Depression Visibility Wind Speed Wind Dir Waves Ship Positions

Cape Magnolia

Last reported at 2017-Mar-03 02:19 UTC. Time now 2017-Mar-28 14:01 UTC.
Position S 32°18' E 031°11'.
Warning: this ship's position is 25 days out of date.

Length 292 m; draft 10.4 m.

Type: Cargo ship. MMSI: 357427000.

Date/timePositionNaut miles runAvg speedWind from/ knotsBaromVisibWave heightAir tempDewpointWater temp
2017-Mar-03 02:19S 32°18' E 031°11'1111.3
2017-Mar-03 01:21S 32°14' E 031°23'5511.6
2017-Mar-02 20:33S 31°52' E 032°23'2911.6
2017-Mar-02 18:03S 31°40' E 032°54'711.5
2017-Mar-02 17:25S 31°37' E 033°02'1211.3
2017-Mar-02 16:23S 31°32' E 033°15'  
2017-Feb-25 09:22S 20°52' E 057°36'3812.0
2017-Feb-25 06:12S 20°34' E 058°12'1415.0
2017-Feb-25 05:17S 20°27' E 058°25'1115.2
2017-Feb-25 04:33S 20°22' E 058°35'1312.8
2017-Feb-25 03:33S 20°16' E 058°47'1212.0
2017-Feb-25 02:31S 20°10' E 058°59'1211.9
2017-Feb-25 01:33S 20°04' E 059°10'1211.9
2017-Feb-25 00:30S 19°58' E 059°21'  
Track history (hours):
 
Tides and Currents Weather Stations Pressure Air Temp Water Temp Dewpoint Dewpoint Depression Visibility Wind Speed Wind Dir Waves Ship Positions

Cape Magnolia

Last reported at 2017-Mar-03 02:19 UTC. Time now 2017-Mar-28 14:01 UTC.
Position S 32°18' E 031°11'.
Warning: this ship's position is 25 days out of date.

Length 292 m; draft 10.4 m.

Type: Cargo ship. MMSI: 357427000.

Date/timePositionNaut miles runAvg speedWind from/ knotsBaromVisibWave heightAir tempDewpointWater temp
2017-Mar-03 02:19S 32°18' E 031°11'1111.3
2017-Mar-03 01:21S 32°14' E 031°23'5511.6
2017-Mar-02 20:33S 31°52' E 032°23'2911.6
2017-Mar-02 18:03S 31°40' E 032°54'711.5
2017-Mar-02 17:25S 31°37' E 033°02'1211.3
2017-Mar-02 16:23S 31°32' E 033°15'  
2017-Feb-25 09:22S 20°52' E 057°36'3812.0
2017-Feb-25 06:12S 20°34' E 058°12'1415.0
2017-Feb-25 05:17S 20°27' E 058°25'1115.2
2017-Feb-25 04:33S 20°22' E 058°35'1312.8
2017-Feb-25 03:33S 20°16' E 058°47'1212.0
2017-Feb-25 02:31S 20°10' E 058°59'1211.9
2017-Feb-25 01:33S 20°04' E 059°10'1211.9
2017-Feb-25 00:30S 19°58' E 059°21'  

Dump ship's entire track history